sensor_id;sensor_type;location;lat;lon;timestamp;pressure;altitude;pressure_sealevel;temperature;humidity
49709;BME280;35601;55.902;13.606;2023-08-31T00:00:09;99709.97;;;11.38;77.46
49709;BME280;35601;55.902;13.606;2023-08-31T00:02:32;99710.62;;;11.11;77.99
49709;BME280;35601;55.902;13.606;2023-08-31T00:04:57;99711.56;;;11.09;77.84
49709;BME280;35601;55.902;13.606;2023-08-31T00:07:22;99714.79;;;10.91;79.01
49709;BME280;35601;55.902;13.606;2023-08-31T00:09:48;99714.67;;;10.88;79.19
49709;BME280;35601;55.902;13.606;2023-08-31T00:12:13;99710.85;;;10.84;79.77
49709;BME280;35601;55.902;13.606;2023-08-31T00:14:38;99711.81;;;10.83;79.88
49709;BME280;35601;55.902;13.606;2023-08-31T00:17:03;99708.43;;;10.87;80.10
49709;BME280;35601;55.902;13.606;2023-08-31T00:19:28;99705.79;;;10.85;80.52
49709;BME280;35601;55.902;13.606;2023-08-31T00:21:54;99706.71;;;11.13;80.63
49709;BME280;35601;55.902;13.606;2023-08-31T00:24:19;99707.07;;;10.79;80.88
49709;BME280;35601;55.902;13.606;2023-08-31T00:26:44;99708.15;;;11.29;80.81
49709;BME280;35601;55.902;13.606;2023-08-31T00:29:10;99712.53;;;11.18;80.43
49709;BME280;35601;55.902;13.606;2023-08-31T00:31:34;99712.43;;;10.94;79.83
49709;BME280;35601;55.902;13.606;2023-08-31T00:34:00;99710.94;;;11.23;79.36
49709;BME280;35601;55.902;13.606;2023-08-31T00:36:25;99712.12;;;11.47;79.22
49709;BME280;35601;55.902;13.606;2023-08-31T00:38:50;99711.47;;;11.02;79.43
49709;BME280;35601;55.902;13.606;2023-08-31T00:41:15;99715.85;;;11.00;80.14
49709;BME280;35601;55.902;13.606;2023-08-31T00:43:40;99717.36;;;10.97;80.58
49709;BME280;35601;55.902;13.606;2023-08-31T00:46:06;99719.81;;;11.02;80.49
49709;BME280;35601;55.902;13.606;2023-08-31T00:48:31;99717.37;;;11.07;80.27
49709;BME280;35601;55.902;13.606;2023-08-31T00:50:56;99712.76;;;11.34;80.34
49709;BME280;35601;55.902;13.606;2023-08-31T00:53:21;99709.59;;;11.11;80.30
49709;BME280;35601;55.902;13.606;2023-08-31T00:55:47;99707.59;;;11.14;80.30
49709;BME280;35601;55.902;13.606;2023-08-31T00:58:12;99703.97;;;11.16;80.41
49709;BME280;35601;55.902;13.606;2023-08-31T01:00:44;99702.59;;;11.20;80.25
49709;BME280;35601;55.902;13.606;2023-08-31T01:03:08;99698.88;;;11.28;80.05
49709;BME280;35601;55.902;13.606;2023-08-31T01:05:35;99702.13;;;11.35;79.56
49709;BME280;35601;55.902;13.606;2023-08-31T01:07:58;99700.66;;;11.39;79.40
49709;BME280;35601;55.902;13.606;2023-08-31T01:10:25;99699.43;;;11.40;79.48
49709;BME280;35601;55.902;13.606;2023-08-31T01:12:47;99697.94;;;11.41;79.59
49709;BME280;35601;55.902;13.606;2023-08-31T01:15:11;99699.10;;;11.39;79.84
49709;BME280;35601;55.902;13.606;2023-08-31T01:17:37;99696.38;;;11.40;80.09
49709;BME280;35601;55.902;13.606;2023-08-31T01:20:00;99697.90;;;11.47;79.91
49709;BME280;35601;55.902;13.606;2023-08-31T01:22:30;99700.42;;;11.46;80.05
49709;BME280;35601;55.902;13.606;2023-08-31T01:24:49;99703.79;;;11.51;79.56
49709;BME280;35601;55.902;13.606;2023-08-31T01:27:14;99705.07;;;11.29;79.32
49709;BME280;35601;55.902;13.606;2023-08-31T01:29:39;99705.35;;;11.41;79.57
49709;BME280;35601;55.902;13.606;2023-08-31T01:32:06;99705.49;;;11.43;79.58
49709;BME280;35601;55.902;13.606;2023-08-31T01:34:29;99706.21;;;11.49;79.34
49709;BME280;35601;55.902;13.606;2023-08-31T01:36:59;99703.35;;;11.50;79.12
49709;BME280;35601;55.902;13.606;2023-08-31T01:39:23;99702.53;;;11.50;79.32
49709;BME280;35601;55.902;13.606;2023-08-31T01:41:51;99702.13;;;11.28;79.26
49709;BME280;35601;55.902;13.606;2023-08-31T01:44:13;99699.65;;;11.28;79.32
49709;BME280;35601;55.902;13.606;2023-08-31T01:46:36;99699.56;;;11.54;78.68
49709;BME280;35601;55.902;13.606;2023-08-31T01:49:01;99698.22;;;11.55;78.38
49709;BME280;35601;55.902;13.606;2023-08-31T01:51:26;99697.19;;;11.53;78.16
49709;BME280;35601;55.902;13.606;2023-08-31T01:53:51;99696.05;;;11.28;77.95
49709;BME280;35601;55.902;13.606;2023-08-31T01:56:16;99697.50;;;11.41;78.81
49709;BME280;35601;55.902;13.606;2023-08-31T01:58:42;99699.77;;;11.43;78.60
49709;BME280;35601;55.902;13.606;2023-08-31T02:01:07;99703.69;;;11.43;78.31
49709;BME280;35601;55.902;13.606;2023-08-31T02:03:32;99700.82;;;11.37;78.03
49709;BME280;35601;55.902;13.606;2023-08-31T02:05:57;99698.95;;;11.30;78.18
49709;BME280;35601;55.902;13.606;2023-08-31T02:08:23;99697.52;;;11.00;78.41
49709;BME280;35601;55.902;13.606;2023-08-31T02:10:48;99695.35;;;11.19;78.58
49709;BME280;35601;55.902;13.606;2023-08-31T02:13:14;99694.32;;;11.15;78.91
49709;BME280;35601;55.902;13.606;2023-08-31T02:15:38;99697.27;;;11.14;79.01
49709;BME280;35601;55.902;13.606;2023-08-31T02:18:04;99694.37;;;11.13;79.00
49709;BME280;35601;55.902;13.606;2023-08-31T02:20:28;99690.25;;;11.34;79.18
49709;BME280;35601;55.902;13.606;2023-08-31T02:22:54;99684.73;;;11.07;79.56
49709;BME280;35601;55.902;13.606;2023-08-31T02:25:19;99681.32;;;11.08;79.93
49709;BME280;35601;55.902;13.606;2023-08-31T02:27:44;99677.99;;;11.10;80.26
49709;BME280;35601;55.902;13.606;2023-08-31T02:30:09;99674.81;;;11.10;80.51
49709;BME280;35601;55.902;13.606;2023-08-31T02:32:34;99672.82;;;11.10;80.68
49709;BME280;35601;55.902;13.606;2023-08-31T02:35:00;99674.73;;;11.06;80.81
49709;BME280;35601;55.902;13.606;2023-08-31T02:37:25;99669.04;;;9.88;80.54
49709;BME280;35601;55.902;13.606;2023-08-31T02:39:53;99665.33;;;11.36;79.69
49709;BME280;35601;55.902;13.606;2023-08-31T02:42:16;99663.64;;;11.33;79.04
49709;BME280;35601;55.902;13.606;2023-08-31T02:44:41;99659.68;;;11.29;78.63
49709;BME280;35601;55.902;13.606;2023-08-31T02:47:06;99655.13;;;11.19;78.77
49709;BME280;35601;55.902;13.606;2023-08-31T02:49:31;99653.98;;;11.09;79.18
49709;BME280;35601;55.902;13.606;2023-08-31T02:51:56;99653.75;;;11.04;79.42
49709;BME280;35601;55.902;13.606;2023-08-31T02:54:22;99652.29;;;11.02;79.78
49709;BME280;35601;55.902;13.606;2023-08-31T02:56:47;99653.06;;;10.97;80.57
49709;BME280;35601;55.902;13.606;2023-08-31T02:59:12;99650.47;;;10.99;80.84
49709;BME280;35601;55.902;13.606;2023-08-31T03:01:37;99652.36;;;10.70;81.20
49709;BME280;35601;55.902;13.606;2023-08-31T03:04:03;99653.97;;;10.96;81.34
49709;BME280;35601;55.902;13.606;2023-08-31T03:06:28;99654.17;;;11.27;81.26
49709;BME280;35601;55.902;13.606;2023-08-31T03:08:53;99653.26;;;11.08;80.88
49709;BME280;35601;55.902;13.606;2023-08-31T03:11:18;99653.89;;;11.11;80.52
49709;BME280;35601;55.902;13.606;2023-08-31T03:13:43;99654.72;;;10.88;80.28
49709;BME280;35601;55.902;13.606;2023-08-31T03:16:08;99653.97;;;11.29;80.46
49709;BME280;35601;55.902;13.606;2023-08-31T03:18:34;99657.57;;;11.02;80.81
49709;BME280;35601;55.902;13.606;2023-08-31T03:20:59;99659.76;;;11.11;80.46
49709;BME280;35601;55.902;13.606;2023-08-31T03:23:24;99658.18;;;11.10;80.57
49709;BME280;35601;55.902;13.606;2023-08-31T03:25:49;99655.89;;;11.35;80.68
49709;BME280;35601;55.902;13.606;2023-08-31T03:28:14;99653.57;;;11.11;80.51
49709;BME280;35601;55.902;13.606;2023-08-31T03:30:39;99653.19;;;11.03;81.07
49709;BME280;35601;55.902;13.606;2023-08-31T03:33:05;99653.59;;;11.24;81.29
49709;BME280;35601;55.902;13.606;2023-08-31T03:35:31;99652.71;;;11.13;80.86
49709;BME280;35601;55.902;13.606;2023-08-31T03:37:56;99651.83;;;10.92;80.47
49709;BME280;35601;55.902;13.606;2023-08-31T03:40:20;99652.89;;;11.19;80.10
49709;BME280;35601;55.902;13.606;2023-08-31T03:42:46;99651.59;;;11.45;79.91
49709;BME280;35601;55.902;13.606;2023-08-31T03:45:11;99655.01;;;11.20;79.90
49709;BME280;35601;55.902;13.606;2023-08-31T03:47:36;99654.78;;;11.19;79.73
49709;BME280;35601;55.902;13.606;2023-08-31T03:50:01;99652.22;;;11.20;79.71
49709;BME280;35601;55.902;13.606;2023-08-31T03:52:26;99649.22;;;11.43;79.87
49709;BME280;35601;55.902;13.606;2023-08-31T03:54:51;99647.08;;;11.42;80.10
49709;BME280;35601;55.902;13.606;2023-08-31T03:57:17;99645.11;;;11.12;80.54
49709;BME280;35601;55.902;13.606;2023-08-31T03:59:42;99644.23;;;11.11;80.69
49709;BME280;35601;55.902;13.606;2023-08-31T04:02:07;99643.29;;;11.04;81.07
49709;BME280;35601;55.902;13.606;2023-08-31T04:04:32;99640.08;;;11.12;80.99
49709;BME280;35601;55.902;13.606;2023-08-31T04:06:58;99639.67;;;11.18;80.65
49709;BME280;35601;55.902;13.606;2023-08-31T04:09:23;99637.58;;;11.44;80.30
49709;BME280;35601;55.902;13.606;2023-08-31T04:11:48;99636.85;;;11.20;79.96
49709;BME280;35601;55.902;13.606;2023-08-31T04:14:13;99632.78;;;11.18;79.79
49709;BME280;35601;55.902;13.606;2023-08-31T04:16:38;99631.64;;;11.19;79.85
49709;BME280;35601;55.902;13.606;2023-08-31T04:19:04;99631.30;;;11.19;79.99
49709;BME280;35601;55.902;13.606;2023-08-31T04:21:29;99626.36;;;11.21;79.99
49709;BME280;35601;55.902;13.606;2023-08-31T04:23:54;99622.07;;;10.92;80.61
49709;BME280;35601;55.902;13.606;2023-08-31T04:26:19;99624.07;;;11.12;81.11
49709;BME280;35601;55.902;13.606;2023-08-31T04:28:44;99627.98;;;11.17;80.74
49709;BME280;35601;55.902;13.606;2023-08-31T04:31:10;99630.52;;;10.69;80.65
49709;BME280;35601;55.902;13.606;2023-08-31T04:33:36;99630.28;;;11.08;80.41
49709;BME280;35601;55.902;13.606;2023-08-31T04:36:00;99633.98;;;11.33;80.57
49709;BME280;35601;55.902;13.606;2023-08-31T04:38:25;99638.10;;;11.31;81.00
49709;BME280;35601;55.902;13.606;2023-08-31T04:40:51;99635.80;;;11.09;81.43
49709;BME280;35601;55.902;13.606;2023-08-31T04:43:16;99633.05;;;11.03;82.00
49709;BME280;35601;55.902;13.606;2023-08-31T04:45:41;99634.14;;;11.30;82.13
49709;BME280;35601;55.902;13.606;2023-08-31T04:48:06;99634.63;;;11.40;81.99
49709;BME280;35601;55.902;13.606;2023-08-31T04:50:32;99634.02;;;11.40;82.08
49709;BME280;35601;55.902;13.606;2023-08-31T04:52:57;99632.45;;;11.46;82.18
49709;BME280;35601;55.902;13.606;2023-08-31T04:55:22;99634.43;;;11.51;82.10
49709;BME280;35601;55.902;13.606;2023-08-31T04:57:47;99635.07;;;11.57;82.11
49709;BME280;35601;55.902;13.606;2023-08-31T05:00:13;99641.36;;;11.69;81.83
49709;BME280;35601;55.902;13.606;2023-08-31T05:02:37;99643.86;;;11.51;81.57
49709;BME280;35601;55.902;13.606;2023-08-31T05:05:04;99643.58;;;11.48;81.95
49709;BME280;35601;55.902;13.606;2023-08-31T05:07:28;99646.51;;;11.53;82.03
49709;BME280;35601;55.902;13.606;2023-08-31T05:09:53;99645.56;;;11.64;82.44
49709;BME280;35601;55.902;13.606;2023-08-31T05:12:18;99646.52;;;11.67;82.56
49709;BME280;35601;55.902;13.606;2023-08-31T05:14:43;99649.17;;;11.71;82.57
49709;BME280;35601;55.902;13.606;2023-08-31T05:17:09;99648.07;;;11.75;82.56
49709;BME280;35601;55.902;13.606;2023-08-31T05:19:34;99650.07;;;11.56;82.30
49709;BME280;35601;55.902;13.606;2023-08-31T05:21:59;99652.65;;;11.70;82.05
49709;BME280;35601;55.902;13.606;2023-08-31T05:24:24;99650.47;;;11.90;82.03
49709;BME280;35601;55.902;13.606;2023-08-31T05:26:50;99646.76;;;12.00;81.83
49709;BME280;35601;55.902;13.606;2023-08-31T05:29:15;99652.17;;;11.86;81.47
49709;BME280;35601;55.902;13.606;2023-08-31T05:31:40;99656.63;;;11.91;81.08
49709;BME280;35601;55.902;13.606;2023-08-31T05:34:05;99659.63;;;11.72;80.87
49709;BME280;35601;55.902;13.606;2023-08-31T05:36:30;99661.14;;;11.97;81.02
49709;BME280;35601;55.902;13.606;2023-08-31T05:38:55;99668.55;;;11.96;80.99
49709;BME280;35601;55.902;13.606;2023-08-31T05:41:20;99669.52;;;11.92;80.97
49709;BME280;35601;55.902;13.606;2023-08-31T05:43:46;99671.29;;;11.87;81.11
49709;BME280;35601;55.902;13.606;2023-08-31T05:46:11;99672.31;;;11.92;81.15
49709;BME280;35601;55.902;13.606;2023-08-31T05:48:36;99673.48;;;11.89;81.68
49709;BME280;35601;55.902;13.606;2023-08-31T05:51:01;99672.93;;;12.13;81.86
49709;BME280;35601;55.902;13.606;2023-08-31T05:53:26;99676.65;;;11.72;81.77
49709;BME280;35601;55.902;13.606;2023-08-31T05:55:53;99679.81;;;11.99;81.64
49709;BME280;35601;55.902;13.606;2023-08-31T05:58:17;99682.55;;;11.92;81.56
49709;BME280;35601;55.902;13.606;2023-08-31T06:00:42;99682.50;;;12.21;81.37
49709;BME280;35601;55.902;13.606;2023-08-31T06:03:07;99683.38;;;11.95;81.37
49709;BME280;35601;55.902;13.606;2023-08-31T06:05:33;99683.60;;;11.90;81.77
49709;BME280;35601;55.902;13.606;2023-08-31T06:07:57;99686.11;;;11.91;81.96
49709;BME280;35601;55.902;13.606;2023-08-31T06:10:23;99689.23;;;11.92;81.88
49709;BME280;35601;55.902;13.606;2023-08-31T06:12:48;99690.81;;;12.16;81.56
49709;BME280;35601;55.902;13.606;2023-08-31T06:15:13;99691.58;;;11.88;81.93
49709;BME280;35601;55.902;13.606;2023-08-31T06:17:38;99690.43;;;11.92;81.92
49709;BME280;35601;55.902;13.606;2023-08-31T06:20:04;99686.48;;;11.90;81.87
49709;BME280;35601;55.902;13.606;2023-08-31T06:22:29;99688.40;;;11.90;82.00
49709;BME280;35601;55.902;13.606;2023-08-31T06:24:54;99689.53;;;11.99;81.93
49709;BME280;35601;55.902;13.606;2023-08-31T06:27:19;99690.22;;;11.99;82.04
49709;BME280;35601;55.902;13.606;2023-08-31T06:29:44;99689.69;;;12.06;82.04
49709;BME280;35601;55.902;13.606;2023-08-31T06:32:09;99687.80;;;11.80;82.25
49709;BME280;35601;55.902;13.606;2023-08-31T06:34:34;99687.75;;;12.09;82.33
49709;BME280;35601;55.902;13.606;2023-08-31T06:36:59;99690.07;;;11.91;82.14
49709;BME280;35601;55.902;13.606;2023-08-31T06:39:25;99689.03;;;12.26;82.04
49709;BME280;35601;55.902;13.606;2023-08-31T06:41:50;99690.17;;;12.31;82.10
49709;BME280;35601;55.902;13.606;2023-08-31T06:44:15;99691.52;;;12.35;82.12
49709;BME280;35601;55.902;13.606;2023-08-31T06:46:40;99695.61;;;12.21;82.20
49709;BME280;35601;55.902;13.606;2023-08-31T06:49:05;99698.45;;;12.35;82.02
49709;BME280;35601;55.902;13.606;2023-08-31T06:51:30;99697.43;;;12.47;82.01
49709;BME280;35601;55.902;13.606;2023-08-31T06:53:56;99700.22;;;12.51;81.97
49709;BME280;35601;55.902;13.606;2023-08-31T06:56:21;99700.76;;;12.64;81.84
49709;BME280;35601;55.902;13.606;2023-08-31T06:58:46;99699.33;;;12.78;81.72
49709;BME280;35601;55.902;13.606;2023-08-31T07:01:12;99695.46;;;12.57;82.09
49709;BME280;35601;55.902;13.606;2023-08-31T07:03:36;99695.05;;;12.48;82.89
49709;BME280;35601;55.902;13.606;2023-08-31T07:06:01;99693.87;;;12.54;83.33
49709;BME280;35601;55.902;13.606;2023-08-31T07:08:27;99696.43;;;12.42;83.67
49709;BME280;35601;55.902;13.606;2023-08-31T07:10:52;99698.18;;;12.75;83.23
49709;BME280;35601;55.902;13.606;2023-08-31T07:13:17;99700.86;;;12.84;83.86
49709;BME280;35601;55.902;13.606;2023-08-31T07:15:42;99699.89;;;12.69;83.35
49709;BME280;35601;55.902;13.606;2023-08-31T07:18:07;99697.94;;;13.12;83.20
49709;BME280;35601;55.902;13.606;2023-08-31T07:20:32;99696.08;;;13.14;82.65
49709;BME280;35601;55.902;13.606;2023-08-31T07:22:57;99692.91;;;13.31;82.91
49709;BME280;35601;55.902;13.606;2023-08-31T07:25:23;99693.71;;;13.02;82.75
49709;BME280;35601;55.902;13.606;2023-08-31T07:27:48;99686.40;;;13.47;82.76
49709;BME280;35601;55.902;13.606;2023-08-31T07:30:13;99686.87;;;13.13;82.52
49709;BME280;35601;55.902;13.606;2023-08-31T07:32:38;99690.30;;;13.18;81.98
49709;BME280;35601;55.902;13.606;2023-08-31T07:35:03;99692.17;;;13.38;82.34
49709;BME280;35601;55.902;13.606;2023-08-31T07:37:28;99694.50;;;13.53;81.74
49709;BME280;35601;55.902;13.606;2023-08-31T07:39:54;99692.85;;;13.47;81.93
49709;BME280;35601;55.902;13.606;2023-08-31T07:42:19;99691.05;;;13.78;81.88
49709;BME280;35601;55.902;13.606;2023-08-31T07:44:44;99690.29;;;13.73;81.71
49709;BME280;35601;55.902;13.606;2023-08-31T07:47:09;99692.87;;;13.77;81.94
49709;BME280;35601;55.902;13.606;2023-08-31T07:49:34;99693.54;;;14.04;81.93
49709;BME280;35601;55.902;13.606;2023-08-31T07:51:59;99696.49;;;14.20;82.04
49709;BME280;35601;55.902;13.606;2023-08-31T07:54:24;99693.48;;;14.17;81.02
49709;BME280;35601;55.902;13.606;2023-08-31T07:56:50;99691.90;;;14.40;80.81
49709;BME280;35601;55.902;13.606;2023-08-31T07:59:15;99690.29;;;14.23;80.73
49709;BME280;35601;55.902;13.606;2023-08-31T08:01:40;99690.88;;;14.43;80.13
49709;BME280;35601;55.902;13.606;2023-08-31T08:04:05;99696.78;;;14.77;79.36
49709;BME280;35601;55.902;13.606;2023-08-31T08:06:30;99699.31;;;15.04;79.16
49709;BME280;35601;55.902;13.606;2023-08-31T08:08:55;99700.79;;;14.95;78.49
49709;BME280;35601;55.902;13.606;2023-08-31T08:11:22;99699.80;;;14.51;78.26
49709;BME280;35601;55.902;13.606;2023-08-31T08:13:45;99696.78;;;15.01;78.03
49709;BME280;35601;55.902;13.606;2023-08-31T08:16:10;99699.57;;;15.30;78.06
49709;BME280;35601;55.902;13.606;2023-08-31T08:18:36;99696.72;;;15.56;76.75
49709;BME280;35601;55.902;13.606;2023-08-31T08:21:01;99693.11;;;15.70;77.02
49709;BME280;35601;55.902;13.606;2023-08-31T08:23:26;99692.86;;;15.49;75.47
49709;BME280;35601;55.902;13.606;2023-08-31T08:25:51;99693.43;;;15.82;74.64
49709;BME280;35601;55.902;13.606;2023-08-31T08:28:16;99689.66;;;16.01;73.88
49709;BME280;35601;55.902;13.606;2023-08-31T08:30:41;99687.64;;;16.13;72.50
49709;BME280;35601;55.902;13.606;2023-08-31T08:33:08;99686.01;;;16.05;72.46
49709;BME280;35601;55.902;13.606;2023-08-31T08:35:31;99687.48;;;16.34;72.33
49709;BME280;35601;55.902;13.606;2023-08-31T08:37:56;99688.39;;;16.20;70.80
49709;BME280;35601;55.902;13.606;2023-08-31T08:40:22;99685.22;;;16.82;70.46
49709;BME280;35601;55.902;13.606;2023-08-31T08:42:47;99686.17;;;17.03;69.35
49709;BME280;35601;55.902;13.606;2023-08-31T08:45:13;99686.61;;;16.96;70.07
49709;BME280;35601;55.902;13.606;2023-08-31T08:47:37;99686.86;;;16.93;68.12
49709;BME280;35601;55.902;13.606;2023-08-31T08:50:02;99683.25;;;16.60;66.96
49709;BME280;35601;55.902;13.606;2023-08-31T08:52:27;99681.24;;;17.23;66.64
49709;BME280;35601;55.902;13.606;2023-08-31T08:54:53;99683.39;;;16.99;64.41
49709;BME280;35601;55.902;13.606;2023-08-31T08:57:17;99681.92;;;17.23;64.97
49709;BME280;35601;55.902;13.606;2023-08-31T08:59:42;99681.64;;;17.29;62.51
49709;BME280;35601;55.902;13.606;2023-08-31T09:02:09;99678.79;;;17.49;61.42
49709;BME280;35601;55.902;13.606;2023-08-31T09:04:32;99681.60;;;17.85;62.07
49709;BME280;35601;55.902;13.606;2023-08-31T09:06:58;99686.27;;;17.59;62.88
49709;BME280;35601;55.902;13.606;2023-08-31T09:09:23;99689.17;;;17.53;63.10
49709;BME280;35601;55.902;13.606;2023-08-31T09:11:48;99690.58;;;17.70;63.09
49709;BME280;35601;55.902;13.606;2023-08-31T09:14:14;99686.67;;;17.67;60.25
49709;BME280;35601;55.902;13.606;2023-08-31T09:16:38;99684.94;;;17.61;62.27
49709;BME280;35601;55.902;13.606;2023-08-31T09:19:17;99683.91;;;17.63;59.81
49709;BME280;35601;55.902;13.606;2023-08-31T09:21:36;99686.25;;;18.12;61.53
49709;BME280;35601;55.902;13.606;2023-08-31T09:23:57;99685.77;;;18.07;61.31
49709;BME280;35601;55.902;13.606;2023-08-31T09:26:18;99681.32;;;17.87;60.07
49709;BME280;35601;55.902;13.606;2023-08-31T09:28:44;99682.87;;;17.82;60.07
49709;BME280;35601;55.902;13.606;2023-08-31T09:31:09;99682.53;;;18.04;60.55
49709;BME280;35601;55.902;13.606;2023-08-31T09:33:35;99683.38;;;18.21;59.42
49709;BME280;35601;55.902;13.606;2023-08-31T09:36:00;99684.25;;;17.81;61.08
49709;BME280;35601;55.902;13.606;2023-08-31T09:38:25;99686.65;;;17.85;61.06
49709;BME280;35601;55.902;13.606;2023-08-31T09:40:50;99683.94;;;17.49;61.67
49709;BME280;35601;55.902;13.606;2023-08-31T09:43:19;99686.84;;;17.73;63.19
49709;BME280;35601;55.902;13.606;2023-08-31T09:45:40;99684.21;;;17.60;61.48
49709;BME280;35601;55.902;13.606;2023-08-31T09:48:06;99684.23;;;17.56;62.30
49709;BME280;35601;55.902;13.606;2023-08-31T09:50:32;99685.26;;;17.45;62.72
49709;BME280;35601;55.902;13.606;2023-08-31T09:52:57;99690.11;;;17.20;62.56
49709;BME280;35601;55.902;13.606;2023-08-31T09:55:21;99688.56;;;17.29;62.84
49709;BME280;35601;55.902;13.606;2023-08-31T09:57:47;99691.28;;;17.45;63.94
49709;BME280;35601;55.902;13.606;2023-08-31T10:00:12;99691.35;;;16.67;65.71
49709;BME280;35601;55.902;13.606;2023-08-31T10:02:36;99695.55;;;16.53;69.45
49709;BME280;35601;55.902;13.606;2023-08-31T10:05:03;99694.24;;;16.40;71.89
49709;BME280;35601;55.902;13.606;2023-08-31T10:07:27;99687.40;;;16.14;73.90
49709;BME280;35601;55.902;13.606;2023-08-31T10:09:52;99692.14;;;15.74;75.66
49709;BME280;35601;55.902;13.606;2023-08-31T10:12:18;99694.55;;;16.22;75.55
49709;BME280;35601;55.902;13.606;2023-08-31T10:14:43;99696.15;;;15.53;76.91
49709;BME280;35601;55.902;13.606;2023-08-31T10:17:08;99696.17;;;15.90;77.24
49709;BME280;35601;55.902;13.606;2023-08-31T10:19:33;99698.47;;;15.66;77.94
49709;BME280;35601;55.902;13.606;2023-08-31T10:21:58;99699.88;;;15.35;77.94
49709;BME280;35601;55.902;13.606;2023-08-31T10:26:48;99701.88;;;15.40;78.83
49709;BME280;35601;55.902;13.606;2023-08-31T10:31:39;99701.65;;;15.52;78.51
49709;BME280;35601;55.902;13.606;2023-08-31T10:34:05;99703.77;;;15.20;79.36
49709;BME280;35601;55.902;13.606;2023-08-31T10:36:36;99704.16;;;15.20;79.77
49709;BME280;35601;55.902;13.606;2023-08-31T10:39:00;99700.87;;;15.44;79.40
49709;BME280;35601;55.902;13.606;2023-08-31T10:41:21;99698.14;;;15.41;78.80
49709;BME280;35601;55.902;13.606;2023-08-31T10:43:45;99693.43;;;15.51;79.85
49709;BME280;35601;55.902;13.606;2023-08-31T10:46:15;99696.48;;;15.43;79.24
49709;BME280;35601;55.902;13.606;2023-08-31T10:51:00;99699.60;;;15.30;78.20
49709;BME280;35601;55.902;13.606;2023-08-31T10:53:28;99698.24;;;15.40;78.63
49709;BME280;35601;55.902;13.606;2023-08-31T10:55:50;99699.02;;;15.49;78.57
49709;BME280;35601;55.902;13.606;2023-08-31T10:58:15;99701.41;;;15.33;77.91
49709;BME280;35601;55.902;13.606;2023-08-31T11:00:47;99701.01;;;15.43;77.97
49709;BME280;35601;55.902;13.606;2023-08-31T11:03:05;99703.11;;;15.21;78.10
49709;BME280;35601;55.902;13.606;2023-08-31T11:05:31;99706.59;;;15.31;78.91
49709;BME280;35601;55.902;13.606;2023-08-31T11:07:56;99711.17;;;14.78;79.56
49709;BME280;35601;55.902;13.606;2023-08-31T11:10:22;99711.59;;;14.86;79.39
49709;BME280;35601;55.902;13.606;2023-08-31T11:12:48;99719.79;;;15.00;79.33
49709;BME280;35601;55.902;13.606;2023-08-31T11:15:12;99727.23;;;14.87;79.34
49709;BME280;35601;55.902;13.606;2023-08-31T11:17:37;99736.57;;;14.92;79.46
49709;BME280;35601;55.902;13.606;2023-08-31T11:20:02;99743.49;;;14.38;77.89
49709;BME280;35601;55.902;13.606;2023-08-31T11:22:27;99748.71;;;14.29;77.75
49709;BME280;35601;55.902;13.606;2023-08-31T11:24:52;99749.25;;;13.88;79.01
49709;BME280;35601;55.902;13.606;2023-08-31T11:27:19;99754.20;;;14.09;78.76
49709;BME280;35601;55.902;13.606;2023-08-31T11:29:43;99759.33;;;13.97;78.91
49709;BME280;35601;55.902;13.606;2023-08-31T11:32:07;99761.21;;;14.16;78.79
49709;BME280;35601;55.902;13.606;2023-08-31T11:34:32;99759.94;;;14.23;77.74
49709;BME280;35601;55.902;13.606;2023-08-31T11:36:58;99759.57;;;14.24;76.02
49709;BME280;35601;55.902;13.606;2023-08-31T11:39:24;99756.16;;;14.09;76.53
49709;BME280;35601;55.902;13.606;2023-08-31T11:41:48;99753.93;;;14.14;76.63
49709;BME280;35601;55.902;13.606;2023-08-31T11:44:14;99754.52;;;14.26;76.09
49709;BME280;35601;55.902;13.606;2023-08-31T11:46:39;99755.06;;;14.33;76.06
49709;BME280;35601;55.902;13.606;2023-08-31T11:49:04;99757.13;;;14.34;76.62
49709;BME280;35601;55.902;13.606;2023-08-31T11:51:28;99758.47;;;14.25;76.48
49709;BME280;35601;55.902;13.606;2023-08-31T11:53:53;99755.14;;;14.36;77.03
49709;BME280;35601;55.902;13.606;2023-08-31T11:56:19;99755.87;;;14.51;76.79
49709;BME280;35601;55.902;13.606;2023-08-31T11:58:44;99760.08;;;14.40;76.86
49709;BME280;35601;55.902;13.606;2023-08-31T12:01:09;99758.76;;;14.21;76.36
49709;BME280;35601;55.902;13.606;2023-08-31T12:03:42;99755.12;;;14.25;75.42
49709;BME280;35601;55.902;13.606;2023-08-31T12:05:59;99755.34;;;14.29;75.86
49709;BME280;35601;55.902;13.606;2023-08-31T12:08:25;99757.00;;;14.31;76.01
49709;BME280;35601;55.902;13.606;2023-08-31T12:10:49;99754.09;;;14.34;75.84
49709;BME280;35601;55.902;13.606;2023-08-31T12:13:15;99755.31;;;14.35;76.05
49709;BME280;35601;55.902;13.606;2023-08-31T12:15:40;99756.13;;;14.48;75.54
49709;BME280;35601;55.902;13.606;2023-08-31T12:18:09;99751.16;;;13.89;76.81
49709;BME280;35601;55.902;13.606;2023-08-31T12:20:30;99753.56;;;13.91;76.43
49709;BME280;35601;55.902;13.606;2023-08-31T12:22:55;99749.91;;;14.29;76.30
49709;BME280;35601;55.902;13.606;2023-08-31T12:25:21;99748.81;;;13.80;76.82
49709;BME280;35601;55.902;13.606;2023-08-31T12:27:45;99746.64;;;13.91;76.88
49709;BME280;35601;55.902;13.606;2023-08-31T12:30:11;99744.97;;;14.09;77.29
49709;BME280;35601;55.902;13.606;2023-08-31T12:32:35;99742.15;;;14.00;77.07
49709;BME280;35601;55.902;13.606;2023-08-31T12:35:01;99739.69;;;13.78;77.70
49709;BME280;35601;55.902;13.606;2023-08-31T12:37:26;99738.84;;;13.69;79.15
49709;BME280;35601;55.902;13.606;2023-08-31T12:39:51;99741.16;;;13.74;78.69
49709;BME280;35601;55.902;13.606;2023-08-31T12:42:16;99741.76;;;14.12;78.28
49709;BME280;35601;55.902;13.606;2023-08-31T12:44:41;99740.59;;;14.29;77.57